Time;durP1;ratioP1;P1;durP2;ratioP2;P2;SDS_P1;SDS_P2;PMS_P1;PMS_P2;Temp;Humidity;BMP_temperature;BMP_pressure;BME280_temperature;BME280_humidity;BME280_pressure;Samples;Min_cycle;Max_cycle;Signal;HPM_P1;HPM_P2
2021/12/07 00:01:54;;;;;;;33.88;13.50;;;;;;;;;;5033301;28;20772;-57
2021/12/07 00:04:22;;;;;;;32.40;13.88;;;;;;;;;;5050423;28;20555;-57
2021/12/07 00:06:49;;;;;;;30.65;14.45;;;;;;;;;;5051904;28;20086;-57
2021/12/07 00:09:16;;;;;;;31.98;13.25;;;;;;;;;;5018380;28;20047;-57
2021/12/07 00:11:48;;;;;;;29.30;13.98;;;;;;;;;;5052599;28;20040;-57
2021/12/07 00:14:23;;;;;;;34.97;13.75;;;;;;;;;;5049772;28;20028;-56
2021/12/07 00:16:51;;;;;;;32.28;15.13;;;;;;;;;;5020501;28;20036;-57
2021/12/07 00:19:20;;;;;;;35.28;14.25;;;;;;;;;;5034133;28;20030;-57
2021/12/07 00:21:48;;;;;;;29.38;14.40;;;;;;;;;;5033222;28;20033;-57
2021/12/07 00:24:14;;;;;;;27.77;13.38;;;;;;;;;;5053697;28;21072;-57
2021/12/07 00:26:40;;;;;;;35.15;14.38;;;;;;;;;;5055075;28;20093;-57
2021/12/07 00:29:11;;;;;;;31.90;13.02;;;;;;;;;;5053944;28;20669;-56
2021/12/07 00:31:46;;;;;;;31.88;13.68;;;;;;;;;;5053926;28;20067;-58
2021/12/07 00:36:49;;;;;;;28.45;12.98;;;;;;;;;;5054190;28;19916;-58
2021/12/07 00:39:20;;;;;;;26.80;12.80;;;;;;;;;;5028659;28;20028;-58
2021/12/07 00:41:55;;;;;;;29.77;13.15;;;;;;;;;;5037589;28;20032;-57
2021/12/07 00:44:21;;;;;;;26.17;11.65;;;;;;;;;;5026709;28;20055;-58
2021/12/07 00:46:50;;;;;;;28.13;13.27;;;;;;;;;;5056438;28;20036;-57
2021/12/07 00:49:18;;;;;;;32.42;12.95;;;;;;;;;;5055069;28;20040;-58
2021/12/07 00:51:46;;;;;;;28.35;12.00;;;;;;;;;;5034943;28;20028;-57
2021/12/07 00:54:12;;;;;;;28.63;12.63;;;;;;;;;;5052084;28;20047;-56
2021/12/07 00:56:45;;;;;;;27.50;12.85;;;;;;;;;;5035180;28;20036;-58
2021/12/07 00:59:13;;;;;;;25.65;11.65;;;;;;;;;;5050986;28;20119;-56
2021/12/07 01:01:40;;;;;;;23.70;11.90;;;;;;;;;;5053377;28;20989;-56
2021/12/07 01:04:09;;;;;;;28.83;12.88;;;;;;;;;;5052978;28;20163;-56
2021/12/07 01:07:47;;;;;;;26.23;12.68;;;;;;;;;;5052934;28;20043;-55
2021/12/07 01:09:30;;;;;;;30.20;13.13;;;;;;;;;;5019833;28;20047;-58
2021/12/07 01:25:57;;;;;;;27.38;11.63;;;;;;;;;;5031083;28;20036;-57
2021/12/07 01:28:38;;;;;;;25.20;11.90;;;;;;;;;;5029593;28;20050;-57
2021/12/07 01:34:41;;;;;;;34.75;12.60;;;;;;;;;;5027681;28;20152;-58
2021/12/07 01:47:53;;;;;;;28.13;12.20;;;;;;;;;;5046015;28;20037;-56
2021/12/07 01:53:03;;;;;;;28.77;12.00;;;;;;;;;;5033612;28;20033;-56
2021/12/07 02:00:48;;;;;;;28.15;11.27;;;;;;;;;;5030368;28;20045;-57
2021/12/07 02:03:14;;;;;;;23.90;12.23;;;;;;;;;;5038644;28;20029;-57
2021/12/07 02:05:47;;;;;;;23.52;11.15;;;;;;;;;;5046992;28;20039;-56
2021/12/07 02:08:16;;;;;;;26.38;11.38;;;;;;;;;;5028908;28;20039;-55
2021/12/07 02:10:43;;;;;;;32.05;13.57;;;;;;;;;;5038352;28;20209;-56
2021/12/07 02:14:02;;;;;;;25.48;12.10;;;;;;;;;;5034279;28;20208;-55
2021/12/07 02:16:07;;;;;;;23.80;10.68;;;;;;;;;;5050639;28;20126;-55
2021/12/07 02:18:35;;;;;;;28.38;13.07;;;;;;;;;;5034706;28;20756;-58
2021/12/07 02:21:22;;;;;;;25.33;11.15;;;;;;;;;;5035152;28;20809;-57
2021/12/07 02:23:50;;;;;;;26.60;12.73;;;;;;;;;;5031304;28;20114;-56
2021/12/07 02:26:16;;;;;;;22.13;11.00;;;;;;;;;;5054495;28;20487;-56
2021/12/07 02:28:46;;;;;;;25.48;11.50;;;;;;;;;;5050384;28;20033;-56
2021/12/07 02:31:17;;;;;;;25.50;12.13;;;;;;;;;;5050935;28;20107;-56
2021/12/07 02:33:42;;;;;;;25.48;11.18;;;;;;;;;;5051828;28;20062;-57
2021/12/07 02:36:13;;;;;;;27.75;12.20;;;;;;;;;;5051605;28;20139;-57
2021/12/07 02:38:39;;;;;;;24.65;12.27;;;;;;;;;;5052152;28;20032;-56
2021/12/07 02:41:09;;;;;;;20.45;10.23;;;;;;;;;;5051713;28;20039;-56
2021/12/07 02:43:38;;;;;;;19.10;9.85;;;;;;;;;;5037609;28;20146;-56
2021/12/07 02:46:03;;;;;;;24.48;10.77;;;;;;;;;;5035425;28;20462;-58
2021/12/07 02:48:32;;;;;;;24.63;11.07;;;;;;;;;;5051406;28;20028;-58
2021/12/07 02:51:02;;;;;;;18.85;9.35;;;;;;;;;;5037628;28;20600;-58
2021/12/07 02:53:30;;;;;;;25.98;11.65;;;;;;;;;;5036703;28;21943;-57
2021/12/07 02:55:59;;;;;;;29.40;11.98;;;;;;;;;;5054306;28;22164;-57
2021/12/07 02:58:27;;;;;;;21.65;10.77;;;;;;;;;;5036755;28;20028;-57
2021/12/07 03:01:02;;;;;;;23.25;9.98;;;;;;;;;;5050246;28;20067;-58
2021/12/07 03:03:35;;;;;;;23.33;11.18;;;;;;;;;;5054430;28;20035;-57
2021/12/07 03:28:19;;;;;;;18.95;9.18;;;;;;;;;;5054021;28;20033;-57
2021/12/07 03:30:45;;;;;;;20.58;9.30;;;;;;;;;;5053067;28;20040;-58
2021/12/07 03:33:10;;;;;;;27.95;11.80;;;;;;;;;;5053821;28;20330;-58
2021/12/07 03:35:40;;;;;;;22.23;10.23;;;;;;;;;;5053434;28;22184;-58
2021/12/07 03:38:09;;;;;;;25.00;9.13;;;;;;;;;;5035731;28;22163;-57
2021/12/07 03:40:40;;;;;;;16.98;8.45;;;;;;;;;;5054272;28;20063;-58
2021/12/07 03:43:06;;;;;;;23.10;9.55;;;;;;;;;;5053884;28;20032;-59
2021/12/07 03:45:34;;;;;;;21.48;10.35;;;;;;;;;;5053905;28;20040;-59
2021/12/07 03:48:04;;;;;;;16.77;8.30;;;;;;;;;;5026036;28;20143;-59
2021/12/07 03:50:32;;;;;;;25.60;8.68;;;;;;;;;;5053910;28;20028;-57
2021/12/07 03:53:00;;;;;;;22.40;8.40;;;;;;;;;;5052700;28;20039;-59
2021/12/07 03:55:49;;;;;;;19.02;8.88;;;;;;;;;;5034067;28;20044;-58
2021/12/07 03:58:17;;;;;;;20.77;8.35;;;;;;;;;;5052374;28;20610;-59
2021/12/07 04:00:48;;;;;;;18.33;8.43;;;;;;;;;;5053338;28;20021;-58
2021/12/07 04:03:19;;;;;;;22.08;9.25;;;;;;;;;;5052357;28;20051;-58
2021/12/07 04:05:53;;;;;;;21.73;9.15;;;;;;;;;;5008755;28;20036;-58
2021/12/07 04:08:22;;;;;;;21.42;9.77;;;;;;;;;;5049555;28;20043;-59
2021/12/07 04:10:50;;;;;;;24.58;8.80;;;;;;;;;;5051574;28;20044;-59
2021/12/07 04:13:19;;;;;;;23.90;9.25;;;;;;;;;;5053563;28;20028;-59
2021/12/07 04:15:48;;;;;;;18.23;7.68;;;;;;;;;;5048912;28;21886;-58
2021/12/07 04:18:13;;;;;;;21.55;9.10;;;;;;;;;;5035669;28;20032;-58
2021/12/07 04:20:40;;;;;;;17.50;8.15;;;;;;;;;;5053324;28;20028;-58
2021/12/07 04:23:07;;;;;;;19.67;8.70;;;;;;;;;;5013375;28;20036;-58
2021/12/07 04:25:33;;;;;;;17.75;8.75;;;;;;;;;;5016876;28;20028;-58
2021/12/07 04:28:01;;;;;;;17.08;8.23;;;;;;;;;;5019549;28;20028;-59
2021/12/07 04:30:33;;;;;;;17.35;7.82;;;;;;;;;;5051397;28;20112;-59
2021/12/07 04:32:59;;;;;;;22.38;8.65;;;;;;;;;;5037673;28;20136;-58
2021/12/07 04:35:25;;;;;;;22.52;8.60;;;;;;;;;;5032927;28;20028;-58
2021/12/07 04:37:54;;;;;;;17.98;9.15;;;;;;;;;;5035819;28;20042;-58
2021/12/07 04:43:56;;;;;;;12.80;7.37;;;;;;;;;;5052382;28;20031;-59
2021/12/07 04:46:34;;;;;;;17.38;7.25;;;;;;;;;;5052174;28;20167;-59
2021/12/07 05:00:00;;;;;;;20.73;8.40;;;;;;;;;;5052154;28;20041;-59
2021/12/07 05:03:03;;;;;;;15.70;7.32;;;;;;;;;;5051824;28;20278;-60
2021/12/07 05:05:33;;;;;;;18.50;7.78;;;;;;;;;;5048487;28;20032;-58
2021/12/07 05:08:04;;;;;;;19.67;7.57;;;;;;;;;;5033887;28;20128;-59
2021/12/07 05:11:23;;;;;;;21.13;8.30;;;;;;;;;;5033184;28;20177;-58
2021/12/07 05:40:04;;;;;;;17.02;8.00;;;;;;;;;;5051184;28;20070;-57
2021/12/07 05:42:30;;;;;;;15.52;6.45;;;;;;;;;;5034739;28;20040;-59
2021/12/07 05:44:57;;;;;;;19.17;9.77;;;;;;;;;;5050220;28;20040;-58
2021/12/07 05:47:24;;;;;;;22.77;9.00;;;;;;;;;;5052717;28;20615;-58
2021/12/07 05:49:49;;;;;;;18.30;8.48;;;;;;;;;;5050093;28;20032;-58
2021/12/07 05:52:14;;;;;;;16.48;7.50;;;;;;;;;;5051339;28;20107;-60
2021/12/07 05:54:40;;;;;;;16.42;7.22;;;;;;;;;;5033652;28;20325;-59
2021/12/07 05:57:08;;;;;;;19.60;6.95;;;;;;;;;;5051784;28;20028;-58
2021/12/07 05:59:36;;;;;;;15.05;6.30;;;;;;;;;;5033301;28;20037;-59
2021/12/07 06:02:02;;;;;;;14.85;6.78;;;;;;;;;;5053519;28;20028;-58
2021/12/07 06:04:30;;;;;;;10.80;5.18;;;;;;;;;;5032291;28;20056;-58
2021/12/07 06:06:58;;;;;;;12.88;5.93;;;;;;;;;;5034093;28;20416;-58
2021/12/07 06:09:26;;;;;;;15.35;5.05;;;;;;;;;;5048586;28;20037;-59
2021/12/07 06:11:53;;;;;;;13.35;5.65;;;;;;;;;;5051876;28;20059;-57
2021/12/07 06:14:30;;;;;;;24.80;5.93;;;;;;;;;;5034272;28;20028;-58
2021/12/07 06:16:58;;;;;;;14.85;5.20;;;;;;;;;;5054090;28;20925;-58
2021/12/07 06:19:29;;;;;;;10.73;5.05;;;;;;;;;;5038888;28;20118;-58
2021/12/07 06:21:55;;;;;;;9.63;3.78;;;;;;;;;;5038063;28;20032;-58
2021/12/07 06:24:25;;;;;;;11.35;4.22;;;;;;;;;;5056262;28;20970;-59
2021/12/07 06:26:54;;;;;;;11.45;5.22;;;;;;;;;;5056277;28;20028;-58
2021/12/07 06:29:19;;;;;;;12.20;5.15;;;;;;;;;;5052015;28;20028;-58
2021/12/07 06:31:47;;;;;;;9.43;4.70;;;;;;;;;;5057146;28;20036;-58
2021/12/07 06:34:13;;;;;;;14.45;4.57;;;;;;;;;;5037377;28;20032;-58
2021/12/07 06:36:38;;;;;;;11.30;4.45;;;;;;;;;;5029267;28;20084;-57
2021/12/07 06:39:05;;;;;;;8.45;3.90;;;;;;;;;;5021684;28;20043;-58
2021/12/07 06:41:30;;;;;;;13.85;3.92;;;;;;;;;;5056670;28;20028;-58
2021/12/07 06:43:56;;;;;;;12.27;6.75;;;;;;;;;;5055362;28;20039;-58
2021/12/07 06:46:22;;;;;;;14.38;5.65;;;;;;;;;;5023869;28;20071;-58
2021/12/07 06:48:50;;;;;;;17.00;6.25;;;;;;;;;;5019534;28;20071;-59
2021/12/07 06:51:15;;;;;;;16.42;7.10;;;;;;;;;;5055074;28;20119;-57
2021/12/07 06:53:45;;;;;;;16.02;7.07;;;;;;;;;;5035299;28;20681;-58
2021/12/07 06:56:13;;;;;;;14.80;6.15;;;;;;;;;;5055200;28;20051;-57
2021/12/07 06:58:39;;;;;;;12.13;5.20;;;;;;;;;;5036536;28;20066;-58
2021/12/07 07:01:06;;;;;;;14.82;5.70;;;;;;;;;;5050707;28;20036;-58
2021/12/07 07:03:37;;;;;;;13.50;5.25;;;;;;;;;;5037643;28;20310;-57
2021/12/07 07:06:03;;;;;;;9.52;4.47;;;;;;;;;;5020335;28;20032;-56
2021/12/07 07:08:32;;;;;;;11.98;5.63;;;;;;;;;;5053538;28;20038;-58
2021/12/07 07:11:02;;;;;;;12.90;6.13;;;;;;;;;;5055517;28;20062;-57
2021/12/07 07:13:30;;;;;;;15.20;5.20;;;;;;;;;;5056014;28;20043;-57
2021/12/07 07:15:55;;;;;;;11.25;5.88;;;;;;;;;;5037727;28;20051;-57
2021/12/07 07:22:02;;;;;;;9.32;4.22;;;;;;;;;;5051131;28;20035;-59
2021/12/07 07:24:29;;;;;;;9.90;3.92;;;;;;;;;;5037026;28;20032;-57
2021/12/07 07:27:00;;;;;;;5.95;4.00;;;;;;;;;;5036401;28;20031;-57
2021/12/07 07:29:26;;;;;;;18.17;6.00;;;;;;;;;;5032306;28;20081;-57
2021/12/07 07:31:57;;;;;;;11.30;5.72;;;;;;;;;;5035138;28;20019;-57
2021/12/07 07:34:30;;;;;;;11.73;4.95;;;;;;;;;;5054891;28;20119;-57
2021/12/07 07:36:58;;;;;;;11.20;4.35;;;;;;;;;;5037232;28;20047;-57
2021/12/07 07:39:28;;;;;;;11.73;5.15;;;;;;;;;;5054285;28;21978;-56
2021/12/07 07:41:53;;;;;;;9.75;4.57;;;;;;;;;;5038530;28;20054;-56
2021/12/07 07:44:23;;;;;;;9.77;4.45;;;;;;;;;;5054858;28;20036;-57
2021/12/07 07:46:49;;;;;;;9.52;4.53;;;;;;;;;;5035988;28;20059;-57
2021/12/07 07:49:18;;;;;;;14.35;4.82;;;;;;;;;;5052826;28;20539;-56
2021/12/07 07:51:46;;;;;;;9.00;4.43;;;;;;;;;;5055351;28;21027;-57
2021/12/07 07:54:12;;;;;;;8.77;4.15;;;;;;;;;;5038212;28;20441;-57
2021/12/07 07:56:40;;;;;;;12.27;5.35;;;;;;;;;;5052297;28;20033;-57
2021/12/07 07:59:08;;;;;;;8.40;4.50;;;;;;;;;;5052919;28;20494;-57
2021/12/07 08:01:36;;;;;;;14.95;4.57;;;;;;;;;;5036587;28;20603;-58
2021/12/07 08:04:06;;;;;;;8.65;4.47;;;;;;;;;;5034166;28;20067;-57
2021/12/07 08:06:34;;;;;;;11.05;4.40;;;;;;;;;;5035642;28;20024;-57
2021/12/07 08:09:05;;;;;;;10.55;4.53;;;;;;;;;;5052077;28;20017;-56
2021/12/07 08:11:31;;;;;;;10.82;4.55;;;;;;;;;;5052499;28;20508;-56
2021/12/07 08:13:59;;;;;;;7.30;3.17;;;;;;;;;;5052225;28;20132;-57
2021/12/07 08:16:27;;;;;;;12.68;4.32;;;;;;;;;;5047482;28;20034;-57
2021/12/07 08:18:53;;;;;;;11.15;4.40;;;;;;;;;;5030643;28;21113;-57
2021/12/07 08:21:22;;;;;;;11.73;4.03;;;;;;;;;;5053310;28;20081;-57
2021/12/07 08:23:47;;;;;;;7.63;3.90;;;;;;;;;;5049264;28;20036;-57
2021/12/07 08:26:16;;;;;;;13.70;4.78;;;;;;;;;;5052066;28;20064;-57
2021/12/07 08:28:44;;;;;;;10.50;4.38;;;;;;;;;;5036919;28;20036;-56
2021/12/07 08:31:10;;;;;;;9.68;4.55;;;;;;;;;;5053572;28;20032;-57
2021/12/07 08:33:41;;;;;;;11.38;4.57;;;;;;;;;;5050085;28;20032;-57
2021/12/07 08:36:06;;;;;;;11.45;4.80;;;;;;;;;;5034093;28;20842;-57
2021/12/07 08:38:35;;;;;;;10.60;4.72;;;;;;;;;;5052628;28;20036;-57
2021/12/07 08:41:01;;;;;;;17.65;4.32;;;;;;;;;;5033516;28;20040;-57
2021/12/07 08:43:30;;;;;;;11.48;3.78;;;;;;;;;;5035431;28;20946;-58
2021/12/07 08:45:58;;;;;;;12.93;4.65;;;;;;;;;;5053318;28;20025;-58
2021/12/07 08:48:27;;;;;;;12.23;3.92;;;;;;;;;;5052451;28;20052;-58
2021/12/07 08:50:53;;;;;;;8.57;3.95;;;;;;;;;;5038198;28;20028;-58
2021/12/07 08:53:19;;;;;;;7.55;3.08;;;;;;;;;;5049082;28;20103;-56
2021/12/07 09:01:17;;;;;;;13.98;4.50;;;;;;;;;;5052958;28;20041;-57
2021/12/07 09:03:43;;;;;;;11.75;4.95;;;;;;;;;;5017769;28;20060;-57
2021/12/07 09:06:11;;;;;;;9.35;3.80;;;;;;;;;;5053791;28;20432;-57
2021/12/07 09:08:45;;;;;;;10.52;4.15;;;;;;;;;;5051858;28;20035;-57
2021/12/07 09:11:13;;;;;;;11.98;3.80;;;;;;;;;;5040349;28;20438;-57
2021/12/07 09:13:42;;;;;;;12.00;3.97;;;;;;;;;;5052877;28;20641;-58
2021/12/07 09:16:11;;;;;;;8.75;3.50;;;;;;;;;;5056353;28;20032;-57
2021/12/07 09:18:37;;;;;;;8.07;4.22;;;;;;;;;;5053266;28;20147;-57
2021/12/07 09:21:05;;;;;;;5.15;2.97;;;;;;;;;;5053530;28;20028;-58
2021/12/07 09:23:31;;;;;;;9.48;3.33;;;;;;;;;;5031501;28;20097;-57
2021/12/07 09:25:56;;;;;;;9.27;3.22;;;;;;;;;;5034027;28;20491;-57
2021/12/07 09:28:24;;;;;;;11.20;3.83;;;;;;;;;;5049031;28;20028;-56
2021/12/07 09:30:54;;;;;;;11.65;3.47;;;;;;;;;;5051412;28;20020;-58
2021/12/07 09:33:24;;;;;;;8.25;3.30;;;;;;;;;;5018974;28;20029;-58
2021/12/07 09:35:53;;;;;;;9.80;3.58;;;;;;;;;;5031535;28;20035;-57
2021/12/07 09:38:18;;;;;;;7.32;2.72;;;;;;;;;;5034358;28;20501;-58
2021/12/07 09:40:44;;;;;;;16.55;3.67;;;;;;;;;;5052768;28;20037;-58
2021/12/07 09:43:11;;;;;;;8.95;2.72;;;;;;;;;;5053353;28;20479;-59
2021/12/07 09:45:37;;;;;;;10.38;3.72;;;;;;;;;;5051749;28;20039;-57
2021/12/07 09:48:05;;;;;;;12.57;3.25;;;;;;;;;;5053187;28;20024;-58
2021/12/07 09:50:36;;;;;;;13.15;2.63;;;;;;;;;;5035839;28;20740;-57
2021/12/07 09:53:07;;;;;;;14.45;3.40;;;;;;;;;;5051618;28;20035;-59
2021/12/07 09:55:35;;;;;;;13.82;2.25;;;;;;;;;;5034299;28;20020;-57
2021/12/07 09:58:03;;;;;;;13.10;3.63;;;;;;;;;;5034331;28;20040;-58
2021/12/07 10:00:29;;;;;;;9.48;2.40;;;;;;;;;;5033498;28;20124;-57
2021/12/07 10:02:55;;;;;;;5.30;2.55;;;;;;;;;;5034126;28;20101;-57
2021/12/07 10:05:21;;;;;;;8.98;2.45;;;;;;;;;;5050868;28;20554;-57
2021/12/07 10:07:50;;;;;;;6.97;2.45;;;;;;;;;;5050591;28;20387;-57
2021/12/07 10:10:23;;;;;;;5.88;2.42;;;;;;;;;;5033966;28;20040;-58
2021/12/07 10:12:49;;;;;;;3.65;1.98;;;;;;;;;;5008362;28;20048;-57
2021/12/07 10:15:18;;;;;;;7.53;2.30;;;;;;;;;;5052010;28;20547;-57
2021/12/07 10:18:07;;;;;;;8.68;2.42;;;;;;;;;;5050590;28;20032;-57
2021/12/07 10:20:43;;;;;;;12.20;2.78;;;;;;;;;;5034020;28;20031;-58
2021/12/07 10:23:18;;;;;;;7.60;2.60;;;;;;;;;;5051656;28;20024;-57
2021/12/07 10:25:55;;;;;;;4.22;2.05;;;;;;;;;;5052242;28;20047;-57
2021/12/07 10:28:29;;;;;;;2.90;1.95;;;;;;;;;;5050307;28;20052;-60
2021/12/07 10:30:55;;;;;;;8.23;2.53;;;;;;;;;;5038805;28;20124;-58
2021/12/07 10:33:36;;;;;;;7.68;2.38;;;;;;;;;;5031906;28;20026;-59
2021/12/07 10:36:21;;;;;;;10.43;2.20;;;;;;;;;;5050785;28;20031;-60
2021/12/07 10:38:48;;;;;;;7.05;2.05;;;;;;;;;;5016576;28;22074;-58
2021/12/07 10:41:21;;;;;;;15.10;2.63;;;;;;;;;;5034672;28;20059;-58
2021/12/07 10:43:54;;;;;;;8.25;1.88;;;;;;;;;;5050577;28;20048;-58
2021/12/07 10:46:39;;;;;;;5.38;2.47;;;;;;;;;;5050712;28;20032;-59
2021/12/07 10:49:23;;;;;;;12.35;2.10;;;;;;;;;;5051825;28;20028;-59
2021/12/07 10:52:09;;;;;;;17.38;3.42;;;;;;;;;;5034953;28;20036;-59
2021/12/07 10:54:39;;;;;;;8.20;2.17;;;;;;;;;;5053811;28;20116;-60
2021/12/07 10:57:08;;;;;;;12.25;2.67;;;;;;;;;;5034902;28;20036;-60
2021/12/07 10:59:37;;;;;;;12.95;2.85;;;;;;;;;;5050724;28;20402;-60
2021/12/07 11:02:13;;;;;;;12.70;2.40;;;;;;;;;;5052185;28;20028;-60
2021/12/07 11:04:40;;;;;;;7.70;2.58;;;;;;;;;;5037937;28;20517;-60
2021/12/07 11:07:08;;;;;;;10.85;2.65;;;;;;;;;;5052657;28;20033;-59
2021/12/07 11:09:42;;;;;;;12.05;2.78;;;;;;;;;;5039268;28;20963;-61
2021/12/07 11:12:08;;;;;;;;;;;;;;;;;;5057084;28;20059;-59
2021/12/07 11:14:40;;;;;;;15.15;2.70;;;;;;;;;;5054435;28;19912;-58
2021/12/07 11:17:08;;;;;;;9.73;2.23;;;;;;;;;;5053892;28;20037;-60
2021/12/07 11:19:33;;;;;;;10.68;2.67;;;;;;;;;;5034625;28;20031;-60
2021/12/07 11:22:01;;;;;;;7.55;2.83;;;;;;;;;;5038288;28;20032;-60
2021/12/07 11:24:36;;;;;;;14.00;2.92;;;;;;;;;;5053554;28;20043;-61
2021/12/07 11:30:15;;;;;;;14.38;2.88;;;;;;;;;;5054126;28;20036;-60
2021/12/07 11:32:45;;;;;;;11.20;2.53;;;;;;;;;;5053250;28;20478;-62
2021/12/07 11:35:20;;;;;;;5.90;2.40;;;;;;;;;;5054713;28;20155;-61
2021/12/07 11:37:46;;;;;;;9.45;2.42;;;;;;;;;;5020349;28;20037;-61
2021/12/07 11:40:13;;;;;;;7.07;2.38;;;;;;;;;;5053967;28;20767;-60
2021/12/07 11:42:42;;;;;;;7.97;2.30;;;;;;;;;;5052749;28;20040;-60
2021/12/07 11:45:14;;;;;;;10.73;3.00;;;;;;;;;;5052343;28;20054;-59
2021/12/07 11:47:44;;;;;;;11.05;2.60;;;;;;;;;;5036077;28;20722;-61
2021/12/07 11:50:13;;;;;;;11.63;2.75;;;;;;;;;;5039438;28;20040;-59
2021/12/07 11:52:41;;;;;;;6.75;1.92;;;;;;;;;;5035313;28;20036;-61
2021/12/07 11:55:07;;;;;;;6.50;1.90;;;;;;;;;;5036999;28;20039;-61
2021/12/07 11:57:34;;;;;;;7.22;2.20;;;;;;;;;;5054083;28;20117;-60
2021/12/07 12:00:01;;;;;;;7.38;1.88;;;;;;;;;;5013462;28;20035;-60
2021/12/07 12:02:27;;;;;;;8.02;1.98;;;;;;;;;;5035586;28;20028;-60
2021/12/07 12:04:53;;;;;;;8.02;1.70;;;;;;;;;;5018380;28;20663;-61
2021/12/07 12:07:21;;;;;;;9.48;2.90;;;;;;;;;;5015547;28;20483;-61
2021/12/07 12:09:53;;;;;;;7.35;1.80;;;;;;;;;;5036207;28;20059;-60
2021/12/07 12:12:34;;;;;;;9.50;1.80;;;;;;;;;;5053698;28;20055;-60
2021/12/07 12:15:18;;;;;;;13.60;2.58;;;;;;;;;;5048879;28;22041;-61
2021/12/07 12:17:44;;;;;;;18.80;2.80;;;;;;;;;;5033242;28;20194;-62
2021/12/07 12:20:21;;;;;;;11.70;2.10;;;;;;;;;;5015913;28;20529;-60
2021/12/07 12:22:59;;;;;;;10.73;2.53;;;;;;;;;;5053076;28;20431;-62
2021/12/07 12:25:27;;;;;;;10.35;1.98;;;;;;;;;;5053225;28;20878;-61
2021/12/07 12:27:54;;;;;;;8.40;2.00;;;;;;;;;;5019883;28;20031;-63
2021/12/07 12:30:27;;;;;;;6.88;1.80;;;;;;;;;;5053441;28;20032;-61
2021/12/07 12:33:02;;;;;;;13.73;3.43;;;;;;;;;;5033760;28;20513;-62
2021/12/07 12:35:41;;;;;;;11.80;2.92;;;;;;;;;;5051784;28;20437;-62
2021/12/07 12:38:28;;;;;;;12.65;2.28;;;;;;;;;;5034758;28;20040;-61
2021/12/07 12:40:59;;;;;;;13.50;2.30;;;;;;;;;;5049917;28;20032;-62
2021/12/07 12:43:37;;;;;;;7.75;2.17;;;;;;;;;;5029974;28;20060;-63
2021/12/07 12:46:05;;;;;;;15.20;2.13;;;;;;;;;;5049458;28;20144;-62
2021/12/07 12:48:32;;;;;;;6.53;2.15;;;;;;;;;;5050099;28;20476;-61
2021/12/07 12:51:00;;;;;;;9.85;2.40;;;;;;;;;;5052471;28;21158;-61
2021/12/07 12:53:31;;;;;;;8.40;3.05;;;;;;;;;;5016686;28;20025;-62
2021/12/07 12:55:57;;;;;;;14.52;3.25;;;;;;;;;;5031970;28;20107;-61
2021/12/07 12:58:29;;;;;;;13.98;2.90;;;;;;;;;;5037463;28;20077;-62
2021/12/07 13:00:59;;;;;;;9.02;3.00;;;;;;;;;;5050088;28;20027;-62
2021/12/07 13:03:36;;;;;;;11.43;2.60;;;;;;;;;;5050979;28;20052;-62
2021/12/07 13:06:04;;;;;;;6.35;2.70;;;;;;;;;;5015601;28;20047;-62
2021/12/07 13:08:32;;;;;;;9.45;2.47;;;;;;;;;;5012991;28;20028;-63
2021/12/07 13:11:02;;;;;;;9.45;2.53;;;;;;;;;;5033810;28;20024;-62
2021/12/07 13:13:32;;;;;;;11.05;2.97;;;;;;;;;;5051876;28;20024;-62
2021/12/07 13:16:00;;;;;;;14.38;2.80;;;;;;;;;;5030938;28;20028;-61
2021/12/07 13:18:32;;;;;;;8.70;2.67;;;;;;;;;;5052249;28;20037;-61
2021/12/07 13:21:15;;;;;;;13.15;2.05;;;;;;;;;;5050101;28;20128;-61
2021/12/07 13:23:55;;;;;;;8.68;2.45;;;;;;;;;;5033622;28;20024;-63
2021/12/07 13:26:21;;;;;;;9.07;2.72;;;;;;;;;;5051024;28;20041;-62
2021/12/07 13:29:00;;;;;;;14.60;2.72;;;;;;;;;;5033591;28;21910;-62
2021/12/07 13:31:36;;;;;;;8.82;2.67;;;;;;;;;;5051027;28;20029;-62
2021/12/07 13:34:05;;;;;;;11.57;2.38;;;;;;;;;;5047601;28;21893;-62
2021/12/07 13:36:38;;;;;;;11.85;2.72;;;;;;;;;;5053429;28;20032;-61
2021/12/07 13:39:26;;;;;;;7.70;2.35;;;;;;;;;;5051701;28;20147;-64
2021/12/07 13:42:03;;;;;;;6.40;2.25;;;;;;;;;;5048893;28;20048;-62
2021/12/07 13:44:30;;;;;;;16.55;2.30;;;;;;;;;;5050750;28;20028;-62
2021/12/07 13:46:59;;;;;;;9.40;2.40;;;;;;;;;;5052790;28;20047;-61
2021/12/07 13:49:24;;;;;;;8.00;2.63;;;;;;;;;;5042115;28;20544;-64
2021/12/07 13:51:53;;;;;;;11.50;2.55;;;;;;;;;;5052910;28;20036;-64
2021/12/07 13:54:24;;;;;;;8.73;2.25;;;;;;;;;;5051083;28;20021;-68
2021/12/07 13:56:55;;;;;;;12.15;2.83;;;;;;;;;;5035359;28;20037;-63
2021/12/07 13:59:21;;;;;;;9.63;2.50;;;;;;;;;;5050335;28;20045;-62
2021/12/07 14:01:54;;;;;;;7.13;2.88;;;;;;;;;;5052357;28;20147;-62
2021/12/07 14:04:23;;;;;;;19.75;3.22;;;;;;;;;;5034053;28;20067;-63
2021/12/07 14:06:57;;;;;;;9.00;2.70;;;;;;;;;;5048042;28;20048;-63
2021/12/07 14:09:22;;;;;;;10.68;3.13;;;;;;;;;;5049897;28;20128;-62
2021/12/07 14:11:54;;;;;;;10.32;2.40;;;;;;;;;;5027629;28;20105;-61
2021/12/07 14:14:25;;;;;;;15.20;2.85;;;;;;;;;;5031343;28;20498;-62
2021/12/07 14:16:54;;;;;;;10.18;3.15;;;;;;;;;;5032047;28;20360;-62
2021/12/07 14:19:20;;;;;;;17.13;4.35;;;;;;;;;;5008662;28;20028;-62
2021/12/07 14:21:46;;;;;;;9.52;3.38;;;;;;;;;;5014884;28;20044;-63
2021/12/07 14:24:19;;;;;;;8.57;3.10;;;;;;;;;;5003591;28;20025;-61
2021/12/07 14:26:44;;;;;;;8.77;3.33;;;;;;;;;;5046534;28;20410;-63
2021/12/07 14:29:14;;;;;;;9.50;2.85;;;;;;;;;;5032413;28;20016;-62
2021/12/07 14:31:39;;;;;;;15.80;3.28;;;;;;;;;;5017241;28;20020;-62
2021/12/07 14:34:10;;;;;;;13.52;4.60;;;;;;;;;;5032163;28;20032;-61
2021/12/07 14:36:48;;;;;;;14.23;3.35;;;;;;;;;;5032327;28;20040;-65
2021/12/07 14:39:15;;;;;;;19.35;3.80;;;;;;;;;;5052474;28;20039;-63
2021/12/07 14:41:47;;;;;;;11.18;3.65;;;;;;;;;;5053704;28;20020;-62
2021/12/07 14:44:20;;;;;;;10.15;3.78;;;;;;;;;;5051180;28;20637;-62
2021/12/07 14:46:46;;;;;;;8.35;2.83;;;;;;;;;;5055695;28;20028;-64
2021/12/07 14:49:17;;;;;;;11.18;3.00;;;;;;;;;;5053038;28;20028;-62
2021/12/07 14:51:43;;;;;;;6.10;3.47;;;;;;;;;;5034214;28;20021;-62
2021/12/07 14:54:14;;;;;;;16.65;3.55;;;;;;;;;;5054883;28;20024;-63
2021/12/07 14:56:40;;;;;;;15.23;4.03;;;;;;;;;;5052789;28;20541;-63
2021/12/07 14:59:09;;;;;;;8.00;3.63;;;;;;;;;;5032873;28;20669;-63
2021/12/07 15:01:39;;;;;;;12.80;3.78;;;;;;;;;;5055101;28;20028;-63
2021/12/07 15:04:14;;;;;;;15.20;4.35;;;;;;;;;;5034148;28;20193;-63
2021/12/07 15:06:41;;;;;;;14.52;4.43;;;;;;;;;;5054646;28;20032;-62
2021/12/07 15:09:08;;;;;;;22.23;4.72;;;;;;;;;;5054795;28;20065;-63
2021/12/07 15:11:40;;;;;;;11.38;4.50;;;;;;;;;;5053761;28;20062;-62
2021/12/07 15:14:10;;;;;;;13.57;4.60;;;;;;;;;;5025966;28;20067;-62
2021/12/07 15:16:38;;;;;;;9.90;4.38;;;;;;;;;;5045736;28;20028;-63
2021/12/07 15:19:07;;;;;;;17.05;5.03;;;;;;;;;;5038346;28;20043;-63
2021/12/07 15:21:36;;;;;;;25.00;6.05;;;;;;;;;;5055286;28;20033;-63
2021/12/07 15:24:05;;;;;;;12.05;4.80;;;;;;;;;;5055426;28;20107;-62
2021/12/07 15:26:32;;;;;;;12.10;5.07;;;;;;;;;;5055813;28;20040;-62
2021/12/07 15:29:00;;;;;;;13.68;5.28;;;;;;;;;;5051349;28;21173;-63
2021/12/07 15:31:29;;;;;;;12.75;5.28;;;;;;;;;;5053956;28;20029;-63
2021/12/07 15:33:56;;;;;;;15.30;6.63;;;;;;;;;;5052388;28;20032;-64
2021/12/07 15:36:25;;;;;;;19.52;7.03;;;;;;;;;;5053243;28;20704;-63
2021/12/07 15:39:14;;;;;;;19.70;6.20;;;;;;;;;;5054457;28;20057;-63
2021/12/07 15:41:43;;;;;;;22.55;5.85;;;;;;;;;;5037772;28;20032;-63
2021/12/07 15:44:14;;;;;;;24.85;6.25;;;;;;;;;;5057401;28;20024;-63
2021/12/07 15:47:01;;;;;;;16.52;7.80;;;;;;;;;;5039900;28;20064;-61
2021/12/07 15:49:33;;;;;;;26.67;7.43;;;;;;;;;;5057350;28;20032;-63
2021/12/07 15:52:03;;;;;;;13.60;6.22;;;;;;;;;;5039966;28;20025;-62
2021/12/07 15:54:31;;;;;;;17.33;6.93;;;;;;;;;;5057959;28;20056;-62
2021/12/07 15:57:06;;;;;;;26.23;7.25;;;;;;;;;;5048086;28;20358;-62
2021/12/07 15:59:38;;;;;;;24.15;7.47;;;;;;;;;;5048352;28;20120;-62
2021/12/07 16:02:04;;;;;;;14.73;6.88;;;;;;;;;;5056607;28;20105;-62
2021/12/07 16:04:34;;;;;;;21.05;7.88;;;;;;;;;;5037075;28;20020;-62
2021/12/07 16:07:02;;;;;;;29.00;8.15;;;;;;;;;;5010923;28;20024;-64
2021/12/07 16:09:30;;;;;;;20.98;7.47;;;;;;;;;;5025613;28;20063;-63
2021/12/07 16:12:14;;;;;;;22.92;8.15;;;;;;;;;;5035914;28;20048;-62
2021/12/07 16:14:42;;;;;;;22.87;8.57;;;;;;;;;;5037003;28;20031;-64
2021/12/07 16:17:20;;;;;;;26.63;8.65;;;;;;;;;;5034437;28;20286;-61
2021/12/07 16:19:48;;;;;;;22.05;7.90;;;;;;;;;;5006010;28;20938;-61
2021/12/07 16:22:14;;;;;;;24.08;8.95;;;;;;;;;;5052848;28;20130;-60
2021/12/07 16:24:44;;;;;;;23.95;8.65;;;;;;;;;;5034412;28;20052;-63
2021/12/07 16:27:15;;;;;;;21.75;8.32;;;;;;;;;;5051030;28;20548;-62
2021/12/07 16:29:44;;;;;;;25.10;9.00;;;;;;;;;;5035174;28;20047;-61
2021/12/07 16:32:10;;;;;;;22.70;8.80;;;;;;;;;;5034283;28;20040;-62
2021/12/07 16:34:40;;;;;;;25.83;8.48;;;;;;;;;;5025952;28;20352;-61
2021/12/07 16:37:08;;;;;;;29.38;8.65;;;;;;;;;;5015603;28;20046;-61
2021/12/07 16:39:34;;;;;;;19.80;8.55;;;;;;;;;;5052863;28;20245;-61
2021/12/07 16:42:04;;;;;;;22.90;8.38;;;;;;;;;;5049179;28;20031;-61